Estación Meteorológica Peña el Pijo (Robertgarden) [ 01/30/23 15:01:33 CET ]

Fecha Hora Presion(HPa) Temp (°C) Humedad % Rocio (°C) Viento ( m/s) Direccion Lluvia 1Hora(mm) Lluvia 24H(mm) LLuvia Total(mm)
2012-Jan-13 01:01:15 1017.400 0.1 84 -2.3         151.25
2012-Jan-13 02:01:43 1016.900 0.2 84 -2.2         151.25
2012-Jan-13 03:05:56 1016.500 0.5 84 -1.9         151.25
2012-Jan-13 04:04:13 1016.300 1.1 83 -1.5         151.25
2012-Jan-13 05:01:46 1015.800 2.3 79 -1.0         151.25
2012-Jan-13 06:01:44 1015.600 2.5 78 -1.0         151.25
2012-Jan-13 07:01:14 1015.700 2.6 79 -0.7         151.25
2012-Jan-13 08:01:21 1015.600 2.4 79 -0.9         151.25
2012-Jan-13 09:01:20 1015.700 2.2 80 -0.9         151.25
2012-Jan-13 10:01:13 1015.600 4.5 78 1.0         151.25
2012-Jan-13 11:01:18 1015.600 7.4 65 1.2         151.25
2012-Jan-13 12:01:15 1015.100 11.4 56 2.9         151.25
2012-Jan-13 13:01:17 1014.300 12.3 48 1.6         151.25
2012-Jan-13 14:01:18 1013.700 13.4 48 2.6         151.25
2012-Jan-13 15:01:19 1013.200 14.4 42 1.6         151.25
2012-Jan-13 16:01:16 1013.200 14.0 38 -0.2         151.25
2012-Jan-13 17:01:13 1013.400 11.8 41 -1.1         151.25
2012-Jan-13 18:01:14 1013.500 10.3 44 -1.5         151.25
2012-Jan-13 19:01:14 1014.000 5.6 54 -3.0         151.25
2012-Jan-13 20:01:17 1014.200 3.0 61 -3.8         151.25
2012-Jan-13 21:01:18 1014.300 1.3 68 -4.0         151.25
2012-Jan-13 22:01:15 1014.300 0.4 70 -4.4         151.25
2012-Jan-13 23:01:14 1013.800 0.6 69 -4.5         151.25

Temperatura Máxima:14°    Temperatura Mínima:
Presión Máxima:1017.400 Hpa    Presión Mínima:1013.200 Hpa


Volver